Time;durP1;ratioP1;P1;durP2;ratioP2;P2;SDS_P1;SDS_P2;PMS_P1;PMS_P2;Temp;Humidity;BMP_temperature;BMP_pressure;BME280_temperature;BME280_humidity;BME280_pressure;Samples;Min_cycle;Max_cycle;Signal;HPM_P1;HPM_P2
2023/05/06 00:00:41;;;;;;;0.90;0.80;;;22.80;39.80;;;;;;6029144;29;20120;-72
2023/05/06 00:03:53;;;;;;;6.28;1.48;;;22.70;39.80;;;;;;6028794;29;20033;-71
2023/05/06 00:07:10;;;;;;;5.35;0.90;;;22.70;39.90;;;;;;6026926;29;20040;-70
2023/05/06 00:10:17;;;;;;;3.25;1.08;;;22.70;40.00;;;;;;6027585;29;20117;-70
2023/05/06 00:13:22;;;;;;;2.55;1.08;;;22.60;40.00;;;;;;6027226;29;20049;-71
2023/05/06 00:16:25;;;;;;;3.55;1.30;;;22.60;40.10;;;;;;6026604;29;20048;-71
2023/05/06 00:19:31;;;;;;;2.30;1.27;;;22.60;40.30;;;;;;6028139;29;20036;-70
2023/05/06 00:22:37;;;;;;;1.23;1.00;;;22.50;40.40;;;;;;6028298;29;20092;-70
2023/05/06 00:25:43;;;;;;;;;;;22.50;40.60;;;;;;6027457;29;20097;-71
2023/05/06 00:28:53;;;;;;;1.77;1.00;;;22.40;40.70;;;;;;6028184;29;20065;-70
2023/05/06 00:32:04;;;;;;;2.65;1.15;;;22.40;40.60;;;;;;6028311;29;20048;-70
2023/05/06 00:35:17;;;;;;;8.73;1.25;;;22.30;40.80;;;;;;6029117;29;20102;-71
2023/05/06 00:38:24;;;;;;;2.83;0.98;;;22.30;40.90;;;;;;6030132;29;20045;-71
2023/05/06 00:41:36;;;;;;;1.40;1.10;;;22.30;41.10;;;;;;6030693;29;20109;-72
2023/05/06 00:44:47;;;;;;;2.35;0.80;;;22.20;41.20;;;;;;6028798;29;20052;-69
2023/05/06 00:47:55;;;;;;;1.30;1.00;;;22.20;41.40;;;;;;6026821;29;20033;-71
2023/05/06 00:51:01;;;;;;;1.10;1.00;;;22.10;41.50;;;;;;6027747;29;20038;-71
2023/05/06 00:54:16;;;;;;;2.30;0.90;;;22.10;41.60;;;;;;6045415;29;20025;-71
2023/05/06 00:57:24;;;;;;;2.92;1.15;;;22.00;41.80;;;;;;6027725;29;20045;-70
2023/05/06 01:00:33;;;;;;;2.20;1.30;;;22.00;41.90;;;;;;6026203;29;20034;-71
2023/05/06 01:03:46;;;;;;;3.80;1.60;;;21.90;41.90;;;;;;6026206;29;20029;-70
2023/05/06 01:07:04;;;;;;;5.13;2.10;;;21.90;42.10;;;;;;6026587;29;20040;-70
2023/05/06 01:10:59;;;;;;;3.60;1.88;;;21.80;42.50;;;;;;6027654;29;20036;-70
2023/05/06 01:14:22;;;;;;;6.45;1.75;;;21.80;42.70;;;;;;5956027;29;20046;-71
2023/05/06 01:17:28;;;;;;;6.00;2.35;;;21.80;42.70;;;;;;5955652;29;20055;-70
2023/05/06 01:20:37;;;;;;;7.22;1.75;;;21.70;42.70;;;;;;5941389;29;20034;-71
2023/05/06 01:23:57;;;;;;;3.67;1.70;;;21.70;43.00;;;;;;5935591;29;20047;-72
2023/05/06 01:27:03;;;;;;;2.85;1.45;;;21.70;43.20;;;;;;5933214;29;20043;-71
2023/05/06 01:30:10;;;;;;;6.07;2.00;;;21.60;43.40;;;;;;5933023;29;20055;-71
2023/05/06 01:33:41;;;;;;;2.42;1.58;;;21.60;43.50;;;;;;5929246;29;20146;-71
2023/05/06 01:37:17;;;;;;;6.60;2.05;;;21.60;43.70;;;;;;5955814;29;20070;-71
2023/05/06 01:40:29;;;;;;;4.32;2.25;;;21.50;43.70;;;;;;5955901;29;20046;-71
2023/05/06 01:43:41;;;;;;;6.25;1.88;;;21.50;43.90;;;;;;5955586;29;20047;-71
2023/05/06 01:46:53;;;;;;;3.15;1.65;;;21.50;44.00;;;;;;5955278;29;20042;-70
2023/05/06 01:50:04;;;;;;;8.82;1.88;;;21.40;44.20;;;;;;5980171;29;20131;-70
2023/05/06 01:53:12;;;;;;;2.30;1.60;;;21.40;44.50;;;;;;6043768;29;20043;-70
2023/05/06 01:56:23;;;;;;;3.08;1.60;;;21.30;44.80;;;;;;6027334;29;20048;-70
2023/05/06 01:59:29;;;;;;;4.00;1.48;;;21.20;45.00;;;;;;6026462;29;20165;-70
2023/05/06 02:02:33;;;;;;;9.70;2.00;;;21.10;45.10;;;;;;6026262;29;20030;-71
2023/05/06 02:05:41;;;;;;;2.70;1.52;;;21.10;45.30;;;;;;6026575;29;20037;-70
2023/05/06 02:08:55;;;;;;;4.47;1.38;;;21.00;46.00;;;;;;6024598;29;20041;-70
2023/05/06 02:12:06;;;;;;;4.72;1.70;;;21.00;45.70;;;;;;6026424;29;20040;-70
2023/05/06 02:15:14;;;;;;;4.22;1.40;;;20.90;45.70;;;;;;6024659;29;20047;-71
2023/05/06 02:18:24;;;;;;;2.55;1.58;;;20.90;46.00;;;;;;6026091;29;20026;-70
2023/05/06 02:21:32;;;;;;;3.05;1.42;;;20.90;46.10;;;;;;6026246;29;20029;-70
2023/05/06 02:24:41;;;;;;;5.35;2.03;;;20.80;46.20;;;;;;6026267;29;20049;-71
2023/05/06 02:27:53;;;;;;;13.73;1.85;;;20.70;46.30;;;;;;6025003;29;20029;-70
2023/05/06 02:31:02;;;;;;;4.07;1.50;;;20.70;46.50;;;;;;6024578;29;20153;-71
2023/05/06 02:34:12;;;;;;;4.30;1.40;;;20.70;46.50;;;;;;6025620;29;20033;-70
2023/05/06 02:37:24;;;;;;;5.20;1.90;;;20.60;46.40;;;;;;6025746;29;20041;-72
2023/05/06 02:40:35;;;;;;;7.03;2.08;;;20.60;46.60;;;;;;6031777;29;20035;-71
2023/05/06 02:43:46;;;;;;;5.22;1.67;;;20.60;46.60;;;;;;6047625;29;20108;-71
2023/05/06 02:47:01;;;;;;;3.67;1.40;;;20.60;47.00;;;;;;6032038;29;20045;-71
2023/05/06 02:50:10;;;;;;;8.35;1.73;;;20.60;47.10;;;;;;6033326;29;20040;-70
2023/05/06 02:53:21;;;;;;;2.67;1.55;;;20.60;47.00;;;;;;6051716;29;20047;-70
2023/05/06 02:56:31;;;;;;;6.10;1.33;;;20.60;47.10;;;;;;6035098;29;20087;-71
2023/05/06 02:59:37;;;;;;;6.63;1.92;;;20.60;47.30;;;;;;6032180;29;20120;-70
2023/05/06 03:02:46;;;;;;;3.17;1.60;;;20.50;47.50;;;;;;6032162;29;20109;-71
2023/05/06 03:05:59;;;;;;;3.85;1.67;;;20.40;47.70;;;;;;6033556;29;20041;-71
2023/05/06 03:09:08;;;;;;;4.53;1.58;;;20.40;47.80;;;;;;6033390;29;20524;-70
2023/05/06 03:12:19;;;;;;;3.92;1.35;;;20.30;47.80;;;;;;6033020;29;20041;-70
2023/05/06 03:15:32;;;;;;;3.38;1.38;;;20.30;47.80;;;;;;6033341;29;20037;-71
2023/05/06 03:18:37;;;;;;;1.90;1.50;;;20.30;47.80;;;;;;6033396;29;20041;-71
2023/05/06 03:21:47;;;;;;;3.40;1.73;;;20.30;47.80;;;;;;6033539;29;20143;-70
2023/05/06 03:25:00;;;;;;;4.28;1.38;;;20.30;47.90;;;;;;6033237;29;20034;-71
2023/05/06 03:28:11;;;;;;;2.22;1.67;;;20.20;48.00;;;;;;6031568;29;20041;-71
2023/05/06 03:31:24;;;;;;;4.22;1.52;;;20.20;48.20;;;;;;6033273;29;20037;-71
2023/05/06 03:34:35;;;;;;;4.15;1.50;;;20.20;48.30;;;;;;6032970;29;20090;-72
2023/05/06 03:37:45;;;;;;;2.42;1.50;;;20.10;48.30;;;;;;6031331;29;20045;-70
2023/05/06 03:40:57;;;;;;;1.52;1.38;;;20.10;48.20;;;;;;6031849;29;20085;-70
2023/05/06 03:44:11;;;;;;;2.08;1.20;;;20.10;48.30;;;;;;6033009;29;20887;-71
2023/05/06 03:47:26;;;;;;;3.58;1.60;;;20.10;48.30;;;;;;6033872;29;20324;-71
2023/05/06 03:50:35;;;;;;;6.80;1.40;;;20.10;48.30;;;;;;6030434;29;20106;-71
2023/05/06 03:53:41;;;;;;;3.42;1.55;;;20.00;48.40;;;;;;6051086;29;20037;-71
2023/05/06 03:56:52;;;;;;;3.35;1.60;;;20.00;48.50;;;;;;6007233;29;20125;-70
2023/05/06 04:00:09;;;;;;;2.72;1.55;;;20.00;48.50;;;;;;6006404;29;20030;-71
2023/05/06 04:03:32;;;;;;;4.75;1.30;;;20.00;48.60;;;;;;6005772;29;20053;-71
2023/05/06 04:06:38;;;;;;;11.95;1.67;;;20.00;48.70;;;;;;6011982;29;20057;-71
2023/05/06 04:09:48;;;;;;;3.95;1.55;;;20.00;48.60;;;;;;6027938;29;20037;-70
2023/05/06 04:13:06;;;;;;;1.50;1.20;;;20.00;48.60;;;;;;6027963;29;20071;-71
2023/05/06 04:16:26;;;;;;;3.40;1.75;;;20.00;48.70;;;;;;6029538;29;20033;-73
2023/05/06 04:19:37;;;;;;;4.57;1.95;;;19.90;48.70;;;;;;6028083;29;20033;-70
2023/05/06 04:22:45;;;;;;;4.57;1.30;;;19.90;48.80;;;;;;6029619;29;20079;-73
2023/05/06 04:25:53;;;;;;;4.93;1.80;;;19.90;48.90;;;;;;6028578;29;20061;-71
2023/05/06 04:29:11;;;;;;;2.05;1.35;;;19.80;49.00;;;;;;6029351;29;20060;-70
2023/05/06 04:32:32;;;;;;;1.83;1.40;;;19.80;49.00;;;;;;6030275;29;20089;-70
2023/05/06 04:35:55;;;;;;;3.75;1.75;;;19.80;49.10;;;;;;6014192;29;20117;-71
2023/05/06 04:39:09;;;;;;;4.60;1.58;;;19.80;49.00;;;;;;6030089;29;20056;-70
2023/05/06 04:42:17;;;;;;;2.75;1.65;;;19.80;49.10;;;;;;6028435;29;20029;-71
2023/05/06 04:45:48;;;;;;;7.35;1.80;;;19.70;49.10;;;;;;6029785;29;20064;-70
2023/05/06 04:49:06;;;;;;;2.00;1.40;;;19.70;49.30;;;;;;6027751;29;20046;-71
2023/05/06 04:52:15;;;;;;;3.38;1.52;;;19.60;49.40;;;;;;6037623;29;20101;-70
2023/05/06 04:55:21;;;;;;;3.28;1.50;;;19.50;49.60;;;;;;6049554;29;20071;-71
2023/05/06 04:58:32;;;;;;;2.53;1.50;;;19.50;49.80;;;;;;6050973;29;20043;-70
2023/05/06 05:01:42;;;;;;;4.97;1.55;;;19.40;49.90;;;;;;6051103;29;20036;-70
2023/05/06 05:04:50;;;;;;;4.00;1.70;;;19.40;50.00;;;;;;6030078;29;20045;-71
2023/05/06 05:08:05;;;;;;;2.45;1.50;;;19.40;50.10;;;;;;6027922;29;20025;-72
2023/05/06 05:11:13;;;;;;;9.88;1.63;;;19.40;50.20;;;;;;6027805;29;20133;-71
2023/05/06 05:14:22;;;;;;;2.05;1.52;;;19.30;50.20;;;;;;6026582;29;20041;-70
2023/05/06 05:17:32;;;;;;;4.03;1.73;;;19.40;50.20;;;;;;6027534;29;21590;-72
2023/05/06 05:20:46;;;;;;;4.55;1.88;;;19.40;50.20;;;;;;6025999;29;20056;-71
2023/05/06 05:24:01;;;;;;;5.35;1.90;;;19.40;50.20;;;;;;6025997;29;20045;-70
2023/05/06 05:27:17;;;;;;;2.45;1.50;;;19.50;50.30;;;;;;6026101;29;20501;-71
2023/05/06 05:30:24;;;;;;;5.20;1.88;;;19.50;50.30;;;;;;6025897;29;20036;-71
2023/05/06 05:33:32;;;;;;;3.60;1.50;;;19.50;50.20;;;;;;6014634;29;20034;-72
2023/05/06 05:36:41;;;;;;;2.03;1.33;;;19.60;50.20;;;;;;6004808;29;20105;-70
2023/05/06 05:39:51;;;;;;;2.85;1.65;;;19.60;50.00;;;;;;6017524;29;20042;-71
2023/05/06 05:43:03;;;;;;;6.60;1.65;;;19.70;49.90;;;;;;6004519;29;20042;-73
2023/05/06 05:46:16;;;;;;;2.10;1.50;;;19.60;49.80;;;;;;6004260;29;20038;-71
2023/05/06 05:49:25;;;;;;;3.53;1.80;;;19.80;49.80;;;;;;6003538;29;20038;-71
2023/05/06 05:52:33;;;;;;;3.72;1.65;;;19.90;49.80;;;;;;6027650;29;20037;-71
2023/05/06 05:55:41;;;;;;;3.42;1.67;;;19.90;49.60;;;;;;6034160;29;20390;-71
2023/05/06 05:58:51;;;;;;;3.22;1.80;;;19.90;49.50;;;;;;6024660;29;20029;-70
2023/05/06 06:02:01;;;;;;;10.95;2.55;;;20.10;49.50;;;;;;6026536;29;20063;-71
2023/05/06 06:05:17;;;;;;;3.75;2.30;;;20.10;49.50;;;;;;6025373;29;20053;-69
2023/05/06 06:08:25;;;;;;;3.95;2.00;;;20.20;49.60;;;;;;6026401;29;20711;-71
2023/05/06 06:11:32;;;;;;;3.33;2.00;;;20.20;49.60;;;;;;6025040;29;20107;-71
2023/05/06 06:14:46;;;;;;;3.60;1.63;;;20.20;49.70;;;;;;6025627;29;20041;-71
2023/05/06 06:17:57;;;;;;;2.72;1.83;;;20.30;49.60;;;;;;6026022;29;20038;-71
2023/05/06 06:21:07;;;;;;;5.18;1.60;;;20.30;49.60;;;;;;6025429;29;20025;-69
2023/05/06 06:24:17;;;;;;;3.97;1.75;;;20.40;49.50;;;;;;6027645;29;20033;-73
2023/05/06 06:27:25;;;;;;;2.10;1.80;;;20.50;49.50;;;;;;6026749;29;20052;-70
2023/05/06 06:30:31;;;;;;;3.08;1.60;;;20.50;49.30;;;;;;6027098;29;20106;-70
2023/05/06 06:33:37;;;;;;;4.50;2.00;;;20.60;49.10;;;;;;6012923;29;20089;-71
2023/05/06 06:36:50;;;;;;;1.83;1.60;;;20.70;48.90;;;;;;6003732;29;20034;-70
2023/05/06 06:39:58;;;;;;;4.65;1.35;;;20.90;48.80;;;;;;6003275;29;20044;-72
2023/05/06 06:43:07;;;;;;;3.35;1.58;;;21.00;48.70;;;;;;6003440;29;20351;-72
2023/05/06 06:46:29;;;;;;;3.35;1.73;;;21.10;48.60;;;;;;6003287;29;20105;-71
2023/05/06 06:49:38;;;;;;;3.60;1.75;;;21.10;48.40;;;;;;6016747;29;20034;-71
2023/05/06 06:52:53;;;;;;;3.83;1.80;;;21.20;48.40;;;;;;6044261;29;20148;-70
2023/05/06 06:56:01;;;;;;;2.97;2.00;;;21.20;48.30;;;;;;6029665;29;20104;-70
2023/05/06 06:59:12;;;;;;;2.72;1.75;;;21.30;48.30;;;;;;6026221;29;20022;-71
2023/05/06 07:02:25;;;;;;;5.10;2.15;;;21.40;48.20;;;;;;6026084;29;20082;-71
2023/05/06 07:05:29;;;;;;;6.30;2.00;;;21.60;48.10;;;;;;6025775;29;20645;-71
2023/05/06 07:08:34;;;;;;;3.90;2.47;;;21.60;47.90;;;;;;6025411;29;20109;-72
2023/05/06 07:11:52;;;;;;;4.30;2.03;;;21.60;48.00;;;;;;6024352;29;20113;-71
2023/05/06 07:15:03;;;;;;;7.97;2.50;;;21.70;48.10;;;;;;6025781;29;20367;-72
2023/05/06 07:18:15;;;;;;;5.63;2.15;;;21.80;47.90;;;;;;6023677;29;20033;-71
2023/05/06 07:21:31;;;;;;;4.15;1.80;;;21.90;47.80;;;;;;6023555;29;20064;-71
2023/05/06 07:24:35;;;;;;;6.43;1.80;;;22.00;47.40;;;;;;6025299;29;20029;-71
2023/05/06 07:27:48;;;;;;;3.38;1.90;;;22.10;47.10;;;;;;6042060;29;20037;-71
2023/05/06 07:31:00;;;;;;;4.45;2.10;;;22.20;46.80;;;;;;6030021;29;20041;-73
2023/05/06 07:34:07;;;;;;;6.90;2.20;;;22.30;46.60;;;;;;6012358;29;20042;-70
2023/05/06 07:37:18;;;;;;;4.95;2.20;;;22.50;46.40;;;;;;6006928;29;20101;-71
2023/05/06 07:40:27;;;;;;;2.70;1.67;;;22.60;46.10;;;;;;6006972;29;20022;-73
2023/05/06 07:43:32;;;;;;;2.78;1.50;;;22.60;45.70;;;;;;6006645;29;20078;-72
2023/05/06 07:46:36;;;;;;;5.25;1.65;;;22.70;45.60;;;;;;6006887;29;20250;-71
2023/05/06 07:49:55;;;;;;;4.13;2.00;;;22.80;45.50;;;;;;6005981;29;20042;-70
2023/05/06 07:53:08;;;;;;;9.85;1.80;;;22.90;45.40;;;;;;6038526;29;20142;-72
2023/05/06 07:56:21;;;;;;;4.25;1.88;;;23.10;45.10;;;;;;6050619;29;20112;-71
2023/05/06 07:59:29;;;;;;;2.70;1.83;;;23.20;44.70;;;;;;6050909;29;20040;-69
2023/05/06 08:02:42;;;;;;;4.30;1.58;;;23.40;44.30;;;;;;6053248;29;20136;-71
2023/05/06 08:06:00;;;;;;;2.72;1.50;;;23.50;44.10;;;;;;6054017;29;20366;-71
2023/05/06 08:09:11;;;;;;;12.52;1.88;;;23.70;43.80;;;;;;6006460;29;20081;-72
2023/05/06 08:12:26;;;;;;;9.55;2.03;;;23.80;43.60;;;;;;6006422;29;20037;-71
2023/05/06 08:15:33;;;;;;;3.42;1.95;;;23.90;43.40;;;;;;6006372;29;20056;-70
2023/05/06 08:18:38;;;;;;;3.80;2.10;;;24.00;43.10;;;;;;6016496;29;20068;-72
2023/05/06 08:21:51;;;;;;;1.92;1.55;;;24.10;42.80;;;;;;6027306;29;20038;-71
2023/05/06 08:25:06;;;;;;;4.35;1.98;;;24.20;42.60;;;;;;6042468;29;20419;-72
2023/05/06 08:28:12;;;;;;;7.75;1.80;;;24.30;42.60;;;;;;6027129;29;20143;-71
2023/05/06 08:31:24;;;;;;;3.90;1.80;;;24.40;42.40;;;;;;6027458;29;20545;-71
2023/05/06 08:34:34;;;;;;;2.08;1.45;;;24.60;42.10;;;;;;6019431;29;20045;-72
2023/05/06 08:37:49;;;;;;;2.72;1.70;;;24.70;41.70;;;;;;6003856;29;20110;-71
2023/05/06 08:41:07;;;;;;;2.95;1.52;;;24.90;41.30;;;;;;6005848;29;20211;-72
2023/05/06 08:44:24;;;;;;;3.78;1.73;;;25.00;41.10;;;;;;6004340;29;20138;-73
2023/05/06 08:47:32;;;;;;;1.80;1.25;;;25.20;41.10;;;;;;6006789;29;20025;-73
2023/05/06 08:50:45;;;;;;;4.15;1.88;;;25.40;40.60;;;;;;6026436;29;20410;-73
2023/05/06 08:54:04;;;;;;;1.95;1.50;;;25.40;40.10;;;;;;6047385;29;20029;-72
2023/05/06 08:57:15;;;;;;;5.57;1.60;;;25.50;39.80;;;;;;6028215;29;20522;-72
2023/05/06 09:00:22;;;;;;;7.88;1.80;;;25.60;39.60;;;;;;6027983;29;20109;-73
2023/05/06 09:03:29;;;;;;;7.07;1.67;;;25.60;39.40;;;;;;6018163;29;20395;-71
2023/05/06 09:06:34;;;;;;;2.45;1.17;;;25.60;38.80;;;;;;6004885;29;20044;-70
2023/05/06 09:09:43;;;;;;;4.13;1.63;;;25.70;38.50;;;;;;6003224;29;20061;-71
2023/05/06 09:13:05;;;;;;;2.55;1.27;;;25.70;38.30;;;;;;6003125;29;20044;-72
2023/05/06 09:16:29;;;;;;;5.82;1.65;;;25.80;38.30;;;;;;6025395;29;20230;-72
2023/05/06 09:19:41;;;;;;;3.88;1.38;;;25.80;38.20;;;;;;6025932;29;20106;-72
2023/05/06 09:22:54;;;;;;;5.10;1.90;;;25.90;38.30;;;;;;6027598;29;20159;-71
2023/05/06 09:26:08;;;;;;;8.32;1.80;;;26.00;38.10;;;;;;6027095;29;20140;-70
2023/05/06 09:29:17;;;;;;;2.78;1.60;;;26.20;38.00;;;;;;6027341;29;20037;-71
2023/05/06 09:32:31;;;;;;;4.03;1.48;;;26.30;37.70;;;;;;6020301;29;20030;-71
2023/05/06 09:35:44;;;;;;;2.38;1.40;;;26.30;37.50;;;;;;5987950;29;20036;-72
2023/05/06 09:38:52;;;;;;;6.00;1.63;;;26.40;37.40;;;;;;6003393;29;20054;-71
2023/05/06 09:42:06;;;;;;;3.10;1.45;;;26.50;37.30;;;;;;6017580;29;20114;-71
2023/05/06 09:45:18;;;;;;;5.65;1.50;;;26.60;37.40;;;;;;6015602;29;20052;-71
2023/05/06 09:48:28;;;;;;;4.30;1.80;;;26.70;37.20;;;;;;6025878;29;20390;-72
2023/05/06 09:51:33;;;;;;;3.88;1.90;;;26.80;37.10;;;;;;6030789;29;20031;-71
2023/05/06 09:54:41;;;;;;;2.53;1.35;;;26.90;36.90;;;;;;6042341;29;20029;-71
2023/05/06 09:57:57;;;;;;;4.47;2.08;;;27.00;36.90;;;;;;6026380;29;20100;-71
2023/05/06 10:01:13;;;;;;;5.75;1.80;;;27.00;36.70;;;;;;6026102;29;20049;-72
2023/05/06 10:04:22;;;;;;;5.05;1.80;;;27.10;36.80;;;;;;6026702;29;20037;-73
2023/05/06 10:07:34;;;;;;;5.53;1.98;;;27.00;36.60;;;;;;6026115;29;20029;-72
2023/05/06 10:10:50;;;;;;;3.65;1.50;;;27.10;36.80;;;;;;6026381;29;20033;-72
2023/05/06 10:14:02;;;;;;;6.15;1.75;;;27.10;36.70;;;;;;6028290;29;20033;-72
2023/05/06 10:17:12;;;;;;;2.25;1.33;;;27.20;36.50;;;;;;6026507;29;20033;-73
2023/05/06 10:20:24;;;;;;;4.57;1.42;;;27.10;36.30;;;;;;6026639;29;20122;-72
2023/05/06 10:23:43;;;;;;;2.97;1.55;;;27.10;36.40;;;;;;6026282;29;20038;-72
2023/05/06 10:26:57;;;;;;;8.90;1.30;;;27.20;36.10;;;;;;6026406;29;20061;-72
2023/05/06 10:30:09;;;;;;;3.53;1.40;;;27.20;35.80;;;;;;6026143;29;20065;-71
2023/05/06 10:33:19;;;;;;;3.08;1.10;;;27.30;35.70;;;;;;6018204;29;20045;-72
2023/05/06 10:36:32;;;;;;;3.17;1.60;;;27.40;35.00;;;;;;6002835;29;20708;-71
2023/05/06 10:39:40;;;;;;;3.70;1.52;;;27.50;35.10;;;;;;5988740;29;20204;-73
2023/05/06 10:42:50;;;;;;;3.33;1.30;;;27.60;34.90;;;;;;6003282;29;20038;-73
2023/05/06 10:46:12;;;;;;;7.10;1.73;;;27.70;34.70;;;;;;6004571;29;20025;-71
2023/05/06 10:49:24;;;;;;;5.50;1.20;;;27.90;34.60;;;;;;6004059;29;20152;-73
2023/05/06 10:52:49;;;;;;;2.83;1.40;;;28.20;34.30;;;;;;6029413;29;20722;-73
2023/05/06 10:56:12;;;;;;;4.57;1.60;;;28.60;33.80;;;;;;6035338;29;20037;-72
2023/05/06 10:59:31;;;;;;;4.80;1.13;;;29.10;33.30;;;;;;6027628;29;20057;-72
2023/05/06 11:02:39;;;;;;;2.03;1.50;;;29.90;32.40;;;;;;6030578;29;20041;-72
2023/05/06 11:05:51;;;;;;;3.65;1.10;;;30.30;31.60;;;;;;6029535;29;20126;-73
2023/05/06 11:09:03;;;;;;;3.30;1.40;;;30.50;30.90;;;;;;6031099;29;20418;-75
2023/05/06 11:12:12;;;;;;;6.20;1.50;;;30.90;30.40;;;;;;6031830;29;20140;-72
2023/05/06 11:15:39;;;;;;;4.75;1.60;;;31.20;30.20;;;;;;6031060;29;20065;-72
2023/05/06 11:18:56;;;;;;;3.38;1.40;;;31.50;29.90;;;;;;6029331;29;20085;-73
2023/05/06 11:22:07;;;;;;;2.88;1.50;;;31.90;29.50;;;;;;6045106;29;20041;-73
2023/05/06 11:25:15;;;;;;;3.15;1.20;;;32.10;29.00;;;;;;6029178;29;20038;-73
2023/05/06 11:28:25;;;;;;;1.55;1.27;;;32.40;28.80;;;;;;6028935;29;20033;-73
2023/05/06 11:31:42;;;;;;;3.75;1.48;;;32.70;28.30;;;;;;6030419;29;20026;-73
2023/05/06 11:34:54;;;;;;;5.35;1.58;;;33.10;28.20;;;;;;6007444;29;20136;-73
2023/05/06 11:38:09;;;;;;;4.72;1.55;;;33.70;27.80;;;;;;6005555;29;20048;-73
2023/05/06 11:41:18;;;;;;;7.80;1.30;;;34.10;27.20;;;;;;6005486;29;20114;-72
2023/05/06 11:44:28;;;;;;;14.18;1.60;;;34.20;26.70;;;;;;6007656;29;20064;-73
2023/05/06 11:47:34;;;;;;;3.88;1.08;;;34.20;26.60;;;;;;6020747;29;20038;-72
2023/05/06 11:50:54;;;;;;;6.90;2.05;;;34.30;26.40;;;;;;6005339;29;20038;-73
2023/05/06 11:54:17;;;;;;;5.03;1.00;;;34.40;26.20;;;;;;6009582;29;20037;-72
2023/05/06 11:57:30;;;;;;;1.92;1.30;;;34.70;26.20;;;;;;6029686;29;20037;-72
2023/05/06 12:00:52;;;;;;;4.25;1.40;;;35.10;25.50;;;;;;6030264;29;20107;-71
2023/05/06 12:04:00;;;;;;;3.72;1.48;;;35.60;25.30;;;;;;6029397;29;20115;-72
2023/05/06 12:07:09;;;;;;;1.55;1.20;;;35.80;24.60;;;;;;6030069;29;20125;-73
2023/05/06 12:10:24;;;;;;;2.80;1.45;;;35.90;24.30;;;;;;6028551;29;20124;-73
2023/05/06 12:13:35;;;;;;;5.30;1.40;;;35.70;24.10;;;;;;6042569;29;20045;-73
2023/05/06 12:16:50;;;;;;;2.33;1.33;;;35.70;24.00;;;;;;6027693;29;20044;-73
2023/05/06 12:19:58;;;;;;;2.78;1.45;;;35.90;23.80;;;;;;6029209;29;20124;-71
2023/05/06 12:23:10;;;;;;;1.80;1.10;;;36.20;23.40;;;;;;6029873;29;20033;-72
2023/05/06 12:26:21;;;;;;;5.20;1.08;;;36.30;23.30;;;;;;6027497;29;20147;-72
2023/05/06 12:29:31;;;;;;;3.00;1.00;;;36.70;23.20;;;;;;6029523;29;20048;-72
2023/05/06 12:32:56;;;;;;;1.58;1.25;;;36.90;23.00;;;;;;6029251;29;20065;-71
2023/05/06 12:36:08;;;;;;;4.30;1.30;;;37.10;22.70;;;;;;6029170;29;20513;-73
2023/05/06 12:39:17;;;;;;;1.50;1.10;;;37.20;22.60;;;;;;6028918;29;20354;-73
2023/05/06 12:42:28;;;;;;;4.78;1.30;;;37.50;22.30;;;;;;6012704;29;20041;-73
2023/05/06 12:45:34;;;;;;;2.22;1.40;;;38.00;22.00;;;;;;6027444;29;20045;-72
2023/05/06 12:48:41;;;;;;;3.15;1.23;;;38.40;21.70;;;;;;6016203;29;20137;-73
2023/05/06 12:52:12;;;;;;;1.80;1.10;;;38.80;21.40;;;;;;6018714;29;20067;-74
2023/05/06 12:55:22;;;;;;;2.88;0.93;;;39.30;21.00;;;;;;6039254;29;20117;-74
2023/05/06 12:58:27;;;;;;;4.68;0.80;;;39.80;20.50;;;;;;6027174;29;20033;-74
2023/05/06 13:01:32;;;;;;;1.92;1.30;;;40.10;20.10;;;;;;6003885;29;20037;-72
2023/05/06 13:04:38;;;;;;;4.13;1.10;;;39.50;20.40;;;;;;6019082;29;20041;-72
2023/05/06 13:07:50;;;;;;;2.40;1.15;;;38.80;21.00;;;;;;6004910;29;20056;-71
2023/05/06 13:10:58;;;;;;;1.52;1.20;;;39.10;20.90;;;;;;6005578;29;20400;-73
2023/05/06 13:14:07;;;;;;;3.70;1.17;;;39.70;20.50;;;;;;6003923;29;20037;-72
2023/05/06 13:17:16;;;;;;;1.83;1.23;;;40.30;20.10;;;;;;6004010;29;20090;-72
2023/05/06 13:20:29;;;;;;;2.83;1.10;;;41.00;19.70;;;;;;6018910;29;20026;-74
2023/05/06 13:23:36;;;;;;;1.25;1.00;;;41.40;19.20;;;;;;6018823;29;20106;-72
2023/05/06 13:26:43;;;;;;;1.17;0.90;;;41.50;18.90;;;;;;6005481;29;20199;-72
2023/05/06 13:29:56;;;;;;;2.03;1.30;;;40.50;19.50;;;;;;6004751;29;20042;-71
2023/05/06 13:33:04;;;;;;;2.37;0.97;;;39.40;20.60;;;;;;6003490;29;20049;-73
2023/05/06 13:36:08;;;;;;;;;;;39.60;20.60;;;;;;6005670;29;20299;-73
2023/05/06 13:39:24;;;;;;;1.40;0.95;;;40.20;20.20;;;;;;6026429;29;19916;-73
2023/05/06 13:42:34;;;;;;;1.88;1.10;;;41.00;19.80;;;;;;6027831;29;20037;-71
2023/05/06 13:45:43;;;;;;;3.50;1.20;;;41.40;19.30;;;;;;6027656;29;20482;-72
2023/05/06 13:49:18;;;;;;;2.92;1.15;;;41.70;19.20;;;;;;6026873;29;20045;-72
2023/05/06 13:52:31;;;;;;;3.15;1.30;;;41.60;19.20;;;;;;6026452;29;20521;-72
2023/05/06 13:55:35;;;;;;;3.90;1.20;;;41.90;18.90;;;;;;6027545;29;20040;-71
2023/05/06 13:58:45;;;;;;;4.40;1.00;;;42.00;18.70;;;;;;6025732;29;20121;-72
2023/05/06 14:01:54;;;;;;;7.05;1.20;;;41.40;19.20;;;;;;6026870;29;20025;-72
2023/05/06 14:05:03;;;;;;;3.17;1.00;;;41.30;19.20;;;;;;6027286;29;20244;-73
2023/05/06 14:08:09;;;;;;;1.58;1.20;;;40.70;19.30;;;;;;6027937;29;20071;-73
2023/05/06 14:11:28;;;;;;;5.00;1.23;;;40.50;19.60;;;;;;6027991;29;20057;-74
2023/05/06 14:14:33;;;;;;;2.97;1.27;;;40.80;19.60;;;;;;6041257;29;20037;-73
2023/05/06 14:17:39;;;;;;;2.25;1.10;;;41.00;19.30;;;;;;6027415;29;20154;-71
2023/05/06 14:20:49;;;;;;;2.05;1.20;;;41.40;19.00;;;;;;6029113;29;20621;-74
2023/05/06 14:24:03;;;;;;;1.65;0.95;;;41.90;18.60;;;;;;6027851;29;20033;-73
2023/05/06 14:27:09;;;;;;;1.48;1.13;;;41.90;18.50;;;;;;6026544;29;20105;-71
2023/05/06 14:30:21;;;;;;;2.80;0.93;;;41.30;18.90;;;;;;6026451;29;20113;-73
2023/05/06 14:33:31;;;;;;;1.17;0.90;;;40.20;19.40;;;;;;6023766;29;20101;-73
2023/05/06 14:36:39;;;;;;;6.05;1.20;;;38.70;20.60;;;;;;6026062;29;20034;-73
2023/05/06 14:39:46;;;;;;;1.90;1.15;;;37.90;21.30;;;;;;6025982;29;20164;-73
2023/05/06 14:43:02;;;;;;;7.55;1.02;;;37.50;21.70;;;;;;6026250;29;20036;-73
2023/05/06 14:46:10;;;;;;;3.22;1.20;;;36.90;22.30;;;;;;6025994;29;20050;-73
2023/05/06 14:49:13;;;;;;;4.22;1.38;;;36.40;22.60;;;;;;6026090;29;20143;-73
2023/05/06 14:52:29;;;;;;;5.95;1.33;;;35.80;23.00;;;;;;6024675;29;20041;-74
2023/05/06 14:55:37;;;;;;;5.82;1.40;;;35.10;23.80;;;;;;6024973;29;20038;-71
2023/05/06 14:58:45;;;;;;;1.70;1.10;;;34.40;25.00;;;;;;6026270;29;20041;-72
2023/05/06 15:02:02;;;;;;;4.63;1.23;;;33.80;25.00;;;;;;6024681;29;20032;-72
2023/05/06 15:05:14;;;;;;;2.90;1.17;;;33.40;25.40;;;;;;6026235;29;20045;-72
2023/05/06 15:08:25;;;;;;;4.75;1.00;;;33.10;25.60;;;;;;6025317;29;20124;-73
2023/05/06 15:11:31;;;;;;;3.53;1.40;;;32.80;25.90;;;;;;6024534;29;20049;-72
2023/05/06 15:14:37;;;;;;;2.72;1.15;;;32.60;26.20;;;;;;6024221;29;20129;-70
2023/05/06 15:17:51;;;;;;;1.00;0.90;;;32.40;26.40;;;;;;6025684;29;20043;-72
2023/05/06 15:21:04;;;;;;;2.30;1.17;;;32.30;26.50;;;;;;6023989;29;20470;-72
2023/05/06 15:24:14;;;;;;;3.60;1.10;;;32.20;26.70;;;;;;6025416;29;20045;-71
2023/05/06 15:27:24;;;;;;;3.30;1.13;;;32.10;26.90;;;;;;6024428;29;20129;-71
2023/05/06 15:30:34;;;;;;;3.45;1.40;;;31.90;27.10;;;;;;6024103;29;20037;-72
2023/05/06 15:33:40;;;;;;;1.70;1.17;;;31.80;27.20;;;;;;6025435;29;20045;-72
2023/05/06 15:37:02;;;;;;;9.48;1.55;;;31.90;27.50;;;;;;6025434;29;20021;-72
2023/05/06 15:40:20;;;;;;;3.17;1.33;;;32.50;26.90;;;;;;6024665;29;20113;-72
2023/05/06 15:43:27;;;;;;;1.98;0.95;;;33.50;26.20;;;;;;6024446;29;20098;-72
2023/05/06 15:46:33;;;;;;;3.60;1.30;;;34.80;25.00;;;;;;6024418;29;20043;-72
2023/05/06 15:49:41;;;;;;;4.47;1.35;;;36.10;24.00;;;;;;6029611;29;20060;-73
2023/05/06 15:52:47;;;;;;;6.68;1.30;;;37.20;23.10;;;;;;6041988;29;20051;-72
2023/05/06 15:55:59;;;;;;;4.03;1.10;;;37.90;22.60;;;;;;6035688;29;20072;-73
2023/05/06 15:59:12;;;;;;;4.70;1.05;;;38.00;22.20;;;;;;6029679;29;20174;-71
2023/05/06 16:02:20;;;;;;;1.10;0.85;;;37.70;22.30;;;;;;6028124;29;20064;-73
2023/05/06 16:05:27;;;;;;;1.50;1.27;;;38.10;22.10;;;;;;6029829;29;20594;-72
2023/05/06 16:08:34;;;;;;;4.93;1.37;;;38.70;21.70;;;;;;6027627;29;20033;-72
2023/05/06 16:11:46;;;;;;;2.25;1.30;;;39.00;21.40;;;;;;6028448;29;20137;-72
2023/05/06 16:14:51;;;;;;;3.83;1.40;;;39.30;21.20;;;;;;6029697;29;20033;-72
2023/05/06 16:18:00;;;;;;;1.55;1.10;;;39.60;21.00;;;;;;6029244;29;20026;-72
2023/05/06 16:21:08;;;;;;;3.60;0.90;;;39.70;20.80;;;;;;6027872;29;20079;-72
2023/05/06 16:24:24;;;;;;;3.53;1.23;;;39.60;20.80;;;;;;6029150;29;20136;-73
2023/05/06 16:27:36;;;;;;;2.75;1.23;;;39.50;20.90;;;;;;6027436;29;20037;-74
2023/05/06 16:30:51;;;;;;;3.70;1.17;;;39.50;21.00;;;;;;6027727;29;20030;-74
2023/05/06 16:34:04;;;;;;;2.22;1.17;;;38.90;21.30;;;;;;6029136;29;20026;-72
2023/05/06 16:37:12;;;;;;;4.60;1.10;;;38.00;22.00;;;;;;6012102;29;20072;-73